Time;durP1;ratioP1;P1;durP2;ratioP2;P2;SDS_P1;SDS_P2;PMS_P1;PMS_P2;Temp;Humidity;BMP_temperature;BMP_pressure;BME280_temperature;BME280_humidity;BME280_pressure;Samples;Min_cycle;Max_cycle;Signal;HPM_P1;HPM_P2
2022/04/07 00:00:21;;;;;;;6.73;1.63;;;;;;;-150.27;100.00;61272.81;5236082;28;20025;-69
2022/04/07 00:02:53;;;;;;;6.73;2.33;;;;;;;-150.27;100.00;61272.81;5254093;28;20881;-70
2022/04/07 00:05:24;;;;;;;5.13;1.80;;;;;;;-150.27;100.00;61272.81;5253848;28;20080;-70
2022/04/07 00:07:56;;;;;;;6.33;1.40;;;;;;;-150.27;100.00;61272.81;5254393;28;20049;-70
2022/04/07 00:10:27;;;;;;;3.97;1.53;;;;;;;-150.27;100.00;61272.81;5254128;28;20486;-73
2022/04/07 00:12:58;;;;;;;3.97;1.17;;;;;;;-150.27;100.00;61272.81;5254013;28;20021;-70
2022/04/07 00:15:30;;;;;;;9.47;1.90;;;;;;;-150.27;100.00;61272.81;5241670;28;20461;-70
2022/04/07 00:18:02;;;;;;;4.93;1.63;;;;;;;-150.27;100.00;61272.81;5232237;28;20365;-70
2022/04/07 00:20:34;;;;;;;6.73;2.83;;;;;;;-150.27;100.00;61272.81;5216381;28;20029;-70
2022/04/07 00:23:05;;;;;;;9.27;1.43;;;;;;;-150.27;100.00;61272.81;5233266;28;20013;-70
2022/04/07 00:25:36;;;;;;;6.43;1.80;;;;;;;-150.27;100.00;61272.81;5233659;28;20080;-69
2022/04/07 00:28:08;;;;;;;7.10;2.00;;;;;;;-150.27;100.00;61272.81;5233308;28;20049;-70
2022/04/07 00:30:39;;;;;;;7.73;1.97;;;;;;;-150.27;100.00;61272.81;5233397;28;20033;-70
2022/04/07 00:33:10;;;;;;;11.70;2.43;;;;;;;-150.27;100.00;61272.81;5232520;28;20508;-70
2022/04/07 00:35:42;;;;;;;5.67;2.00;;;;;;;-150.27;100.00;61272.81;5233199;28;20400;-70
2022/04/07 00:38:13;;;;;;;7.97;2.63;;;;;;;-150.27;100.00;61272.81;5233130;28;20037;-70
2022/04/07 00:40:44;;;;;;;7.67;2.00;;;;;;;-150.27;100.00;61272.81;5233254;28;20063;-69
2022/04/07 00:43:33;;;;;;;7.47;1.53;;;;;;;-150.27;100.00;61272.81;5232827;28;20018;-70
2022/04/07 00:46:04;;;;;;;8.13;1.50;;;;;;;-150.27;100.00;61272.81;5215058;28;20033;-70
2022/04/07 00:48:36;;;;;;;10.83;2.53;;;;;;;-150.27;100.00;61272.81;5232212;28;20025;-70
2022/04/07 00:51:07;;;;;;;7.97;1.90;;;;;;;-150.27;100.00;61272.81;5232800;28;20025;-69
2022/04/07 00:53:39;;;;;;;5.60;1.70;;;;;;;-150.27;100.00;61272.81;5233019;28;20032;-70
2022/04/07 00:56:11;;;;;;;8.17;2.03;;;;;;;-150.27;100.00;61272.81;5232640;28;20029;-70
2022/04/07 00:58:47;;;;;;;11.27;2.40;;;;;;;-150.27;100.00;61272.81;5252330;28;20468;-69
2022/04/07 01:01:22;;;;;;;6.90;1.97;;;;;;;-150.27;100.00;61272.81;5253230;28;20036;-70
2022/04/07 01:03:54;;;;;;;7.67;2.07;;;;;;;-150.27;100.00;61272.81;5252092;28;20471;-70
2022/04/07 01:06:26;;;;;;;8.27;1.93;;;;;;;-150.27;100.00;61272.81;5235002;28;20045;-70
2022/04/07 01:08:57;;;;;;;5.87;1.93;;;;;;;-150.27;100.00;61272.81;5252447;28;20463;-72
2022/04/07 01:11:30;;;;;;;10.73;2.53;;;;;;;-150.27;100.00;61272.81;5235612;28;20017;-70
2022/04/07 01:14:02;;;;;;;9.97;2.27;;;;;;;-150.27;100.00;61272.81;5251971;28;20074;-70
2022/04/07 01:16:34;;;;;;;11.50;2.37;;;;;;;-150.27;100.00;61272.81;5214851;28;20029;-70
2022/04/07 01:19:05;;;;;;;7.60;2.03;;;;;;;-150.27;100.00;61272.81;5231247;28;20028;-70
2022/04/07 01:21:37;;;;;;;6.77;2.50;;;;;;;-150.27;100.00;61272.81;5232270;28;20384;-70
2022/04/07 01:24:10;;;;;;;6.70;2.10;;;;;;;-150.27;100.00;61272.81;5232526;28;20040;-70
2022/04/07 01:26:43;;;;;;;8.17;2.40;;;;;;;-150.27;100.00;61272.81;5214425;28;20028;-70
2022/04/07 01:29:16;;;;;;;8.53;1.60;;;;;;;-150.27;100.00;61272.81;5232083;28;20362;-70
2022/04/07 01:31:47;;;;;;;7.97;1.70;;;;;;;-150.27;100.00;61272.81;5231741;28;20082;-70
2022/04/07 01:34:19;;;;;;;7.07;1.77;;;;;;;-150.27;100.00;61272.81;5213634;28;20037;-70
2022/04/07 01:36:53;;;;;;;12.40;2.70;;;;;;;-150.27;100.00;61272.81;5232252;28;20021;-69
2022/04/07 01:39:27;;;;;;;8.50;2.00;;;;;;;-150.27;100.00;61272.81;5232003;28;20121;-70
2022/04/07 01:41:58;;;;;;;10.40;3.08;;;;;;;-150.27;100.00;61272.81;5231755;28;20404;-70
2022/04/07 01:44:32;;;;;;;7.87;2.93;;;;;;;-150.27;100.00;61272.81;5231879;28;20032;-70
2022/04/07 01:47:04;;;;;;;14.40;2.73;;;;;;;-150.27;100.00;61272.81;5231909;28;20021;-70
2022/04/07 01:49:36;;;;;;;10.07;1.70;;;;;;;-150.27;100.00;61272.81;5230834;28;20033;-70
2022/04/07 01:52:07;;;;;;;5.87;1.90;;;;;;;-150.27;100.00;61272.81;5231857;28;20028;-70
2022/04/07 01:54:42;;;;;;;4.73;1.90;;;;;;;-150.27;100.00;61272.81;5231954;28;20099;-70
2022/04/07 01:57:14;;;;;;;7.80;2.72;;;;;;;-150.27;100.00;61272.81;5231524;28;20710;-70
2022/04/07 01:59:46;;;;;;;7.27;2.00;;;;;;;-150.27;100.00;61272.81;5213883;28;20029;-69
2022/04/07 02:02:18;;;;;;;10.47;2.37;;;;;;;-150.27;100.00;61272.81;5230695;28;20032;-70
2022/04/07 02:05:10;;;;;;;9.17;2.40;;;;;;;-150.27;100.00;61272.81;5231676;28;20452;-69
2022/04/07 02:07:43;;;;;;;7.37;1.70;;;;;;;-150.27;100.00;61272.81;5219467;28;20057;-69
2022/04/07 02:10:15;;;;;;;6.83;2.17;;;;;;;-150.27;100.00;61272.81;5230891;28;20041;-69
2022/04/07 02:12:46;;;;;;;11.33;2.33;;;;;;;-150.27;100.00;61272.81;5231391;28;20030;-69
2022/04/07 02:15:18;;;;;;;10.33;2.20;;;;;;;-150.27;100.00;61272.81;5231615;28;20589;-70
2022/04/07 02:17:49;;;;;;;9.57;2.10;;;;;;;-150.27;100.00;61272.81;5229921;28;20022;-69
2022/04/07 02:20:20;;;;;;;10.23;2.10;;;;;;;-150.27;100.00;61272.81;5231326;28;20029;-70
2022/04/07 02:22:52;;;;;;;8.63;2.40;;;;;;;-150.27;100.00;61272.81;5231399;28;20092;-70
2022/04/07 02:25:27;;;;;;;10.50;3.33;;;;;;;-150.27;100.00;61272.81;5231250;28;20014;-69
2022/04/07 02:27:58;;;;;;;12.10;3.83;;;;;;;-150.27;100.00;61272.81;5230821;28;20494;-70
2022/04/07 02:30:30;;;;;;;9.27;2.20;;;;;;;-150.27;100.00;61272.81;5213828;28;20037;-69
2022/04/07 02:33:01;;;;;;;11.60;2.43;;;;;;;-150.27;100.00;61272.81;5233786;28;20025;-69
2022/04/07 02:35:32;;;;;;;9.63;2.10;;;;;;;-150.27;100.00;61272.81;5233944;28;20021;-70
2022/04/07 02:38:04;;;;;;;10.67;2.30;;;;;;;-150.27;100.00;61272.81;5231114;28;20512;-69
2022/04/07 02:40:35;;;;;;;11.63;2.53;;;;;;;-150.27;100.00;61272.81;5230709;28;20030;-69
2022/04/07 02:43:07;;;;;;;13.93;3.13;;;;;;;-150.27;100.00;61272.81;5231240;28;20025;-70
2022/04/07 02:45:38;;;;;;;8.97;2.47;;;;;;;-150.27;100.00;61272.81;5231270;28;20041;-70
2022/04/07 02:48:09;;;;;;;9.77;2.30;;;;;;;-150.27;100.00;61272.81;5230255;28;20077;-70
2022/04/07 02:50:40;;;;;;;10.30;2.00;;;;;;;-150.27;100.00;61272.81;5231226;28;20022;-70
2022/04/07 02:53:13;;;;;;;11.30;1.73;;;;;;;-150.27;100.00;61272.81;5230631;28;20156;-70
2022/04/07 02:55:44;;;;;;;8.60;2.30;;;;;;;-150.27;100.00;61272.81;5231331;28;20022;-70
2022/04/07 02:58:16;;;;;;;14.03;2.67;;;;;;;-150.27;100.00;61272.81;5213089;28;20040;-70
2022/04/07 03:00:47;;;;;;;9.53;2.40;;;;;;;-150.27;100.00;61272.81;5231281;28;20098;-69
2022/04/07 03:03:18;;;;;;;9.13;2.40;;;;;;;-150.27;100.00;61272.81;5229613;28;20029;-70
2022/04/07 03:05:50;;;;;;;7.70;2.63;;;;;;;-150.27;100.00;61272.81;5230982;28;20013;-70
2022/04/07 03:08:21;;;;;;;10.07;3.57;;;;;;;-150.27;100.00;61272.81;5231007;28;20060;-70
2022/04/07 03:10:52;;;;;;;9.87;2.63;;;;;;;-150.27;100.00;61272.81;5230828;28;20484;-69
2022/04/07 03:13:24;;;;;;;15.60;2.47;;;;;;;-150.27;100.00;61272.81;5231197;28;20029;-70
2022/04/07 03:15:55;;;;;;;8.50;2.40;;;;;;;-150.27;100.00;61272.81;5230722;28;20041;-70
2022/04/07 03:18:26;;;;;;;10.53;2.20;;;;;;;-150.27;100.00;61272.81;5212320;28;20029;-70
2022/04/07 03:20:57;;;;;;;10.23;2.50;;;;;;;-150.27;100.00;61272.81;5230139;28;20047;-71
2022/04/07 03:23:29;;;;;;;9.33;1.90;;;;;;;-150.27;100.00;61272.81;5231290;28;20082;-70
2022/04/07 03:26:01;;;;;;;12.57;3.07;;;;;;;-150.27;100.00;61272.81;5233773;28;20057;-70
2022/04/07 03:28:32;;;;;;;8.87;2.10;;;;;;;-150.27;100.00;61272.81;5234710;28;20395;-70
2022/04/07 03:31:04;;;;;;;12.37;2.67;;;;;;;-150.27;100.00;61272.81;5234504;28;20043;-70
2022/04/07 03:33:35;;;;;;;8.63;2.63;;;;;;;-150.27;100.00;61272.81;5233734;28;20033;-70
2022/04/07 03:36:07;;;;;;;10.27;2.40;;;;;;;-150.27;100.00;61272.81;5234433;28;20041;-70
2022/04/07 03:38:38;;;;;;;8.13;2.00;;;;;;;-150.27;100.00;61272.81;5234102;28;20033;-70
2022/04/07 03:41:10;;;;;;;13.30;2.67;;;;;;;-150.27;100.00;61272.81;5234389;28;20037;-71
2022/04/07 03:43:42;;;;;;;10.53;2.53;;;;;;;-150.27;100.00;61272.81;5234372;28;20532;-70
2022/04/07 03:46:16;;;;;;;9.53;3.70;;;;;;;-150.27;100.00;61272.81;5216185;28;20095;-70
2022/04/07 03:48:51;;;;;;;12.10;2.53;;;;;;;-150.27;100.00;61272.81;5233293;28;20353;-70
2022/04/07 03:51:22;;;;;;;14.87;3.60;;;;;;;-150.27;100.00;61272.81;5233538;28;20501;-71
2022/04/07 03:53:53;;;;;;;8.77;1.93;;;;;;;-150.27;100.00;61272.81;5216246;28;20025;-70
2022/04/07 03:56:25;;;;;;;11.57;2.67;;;;;;;-150.27;100.00;61272.81;5233574;28;20025;-70
2022/04/07 03:58:58;;;;;;;9.30;2.40;;;;;;;-150.27;100.00;61272.81;5234510;28;20135;-70
2022/04/07 04:01:30;;;;;;;9.17;2.10;;;;;;;-150.27;100.00;61272.81;5233590;28;20041;-70
2022/04/07 04:04:02;;;;;;;9.27;2.17;;;;;;;-150.27;100.00;61272.81;5214802;28;20053;-70
2022/04/07 04:06:34;;;;;;;7.80;2.10;;;;;;;-150.27;100.00;61272.81;5211768;28;20135;-70
2022/04/07 04:09:05;;;;;;;11.27;2.70;;;;;;;-150.27;100.00;61272.81;5212700;28;20172;-70
2022/04/07 04:11:36;;;;;;;13.87;2.27;;;;;;;-150.27;100.00;61272.81;5213433;28;20097;-70
2022/04/07 04:14:08;;;;;;;10.67;2.67;;;;;;;-150.27;100.00;61272.81;5211248;28;20042;-70
2022/04/07 04:16:39;;;;;;;9.27;2.07;;;;;;;-150.27;100.00;61272.81;5213100;28;20022;-70
2022/04/07 04:19:11;;;;;;;8.87;1.67;;;;;;;-150.27;100.00;61272.81;5210534;28;20049;-70
2022/04/07 04:21:42;;;;;;;8.00;1.90;;;;;;;-150.27;100.00;61272.81;5212857;28;20038;-71
2022/04/07 04:24:13;;;;;;;6.60;1.57;;;;;;;-150.27;100.00;61272.81;5213197;28;20108;-70
2022/04/07 04:26:45;;;;;;;6.07;1.83;;;;;;;-150.27;100.00;61272.81;5212852;28;20077;-71
2022/04/07 04:29:16;;;;;;;5.97;1.63;;;;;;;-150.27;100.00;61272.81;5211604;28;20561;-70
2022/04/07 04:31:47;;;;;;;11.27;1.57;;;;;;;-150.27;100.00;61272.81;5212594;28;20022;-70
2022/04/07 04:34:18;;;;;;;4.40;1.57;;;;;;;-150.27;100.00;61272.81;5216493;28;20040;-70
2022/04/07 04:36:50;;;;;;;6.10;1.57;;;;;;;-150.27;100.00;61272.81;5194225;28;20039;-70
2022/04/07 04:39:21;;;;;;;5.17;2.00;;;;;;;-150.27;100.00;61272.81;5212411;28;20117;-70
2022/04/07 04:41:52;;;;;;;8.53;2.13;;;;;;;-150.27;100.00;61272.81;5211271;28;20385;-70
2022/04/07 04:44:23;;;;;;;3.33;1.13;;;;;;;-150.27;100.00;61272.81;5212360;28;20485;-70
2022/04/07 04:46:55;;;;;;;4.63;1.27;;;;;;;-150.27;100.00;61272.81;5211071;28;20698;-70
2022/04/07 04:49:26;;;;;;;5.67;1.40;;;;;;;-150.27;100.00;61272.81;5226390;28;20396;-70
2022/04/07 04:51:58;;;;;;;4.60;1.30;;;;;;;-150.27;100.00;61272.81;5232326;28;20476;-71
2022/04/07 04:54:29;;;;;;;5.53;1.23;;;;;;;-150.27;100.00;61272.81;5232908;28;20036;-70
2022/04/07 04:57:01;;;;;;;5.20;1.20;;;;;;;-150.27;100.00;61272.81;5232819;28;20029;-70
2022/04/07 04:59:33;;;;;;;3.97;1.10;;;;;;;-150.27;100.00;61272.81;5231286;28;20464;-70
2022/04/07 05:02:05;;;;;;;2.57;0.80;;;;;;;-150.27;100.00;61272.81;5231272;28;20060;-70
2022/04/07 05:04:36;;;;;;;6.83;1.43;;;;;;;-150.27;100.00;61272.81;5231551;28;20057;-70
2022/04/07 05:07:08;;;;;;;3.13;1.10;;;;;;;-150.27;100.00;61272.81;5242988;28;20384;-71
2022/04/07 05:09:39;;;;;;;3.83;1.10;;;;;;;-150.27;100.00;61272.81;5249628;28;20074;-70
2022/04/07 05:12:10;;;;;;;2.17;1.00;;;;;;;-150.27;100.00;61272.81;5245142;28;20029;-70
2022/04/07 05:14:41;;;;;;;4.17;1.43;;;;;;;-150.27;100.00;61272.81;5247144;28;20136;-70
2022/04/07 05:17:13;;;;;;;5.93;1.50;;;;;;;-150.27;100.00;61272.81;5213702;28;20176;-70
2022/04/07 05:19:44;;;;;;;4.50;1.17;;;;;;;-150.27;100.00;61272.81;5213901;28;20033;-70
2022/04/07 05:22:16;;;;;;;3.53;0.97;;;;;;;-150.27;100.00;61272.81;5232331;28;20156;-70
2022/04/07 05:24:48;;;;;;;4.80;1.50;;;;;;;-150.27;100.00;61272.81;5232104;28;20432;-71
2022/04/07 05:27:19;;;;;;;5.47;1.57;;;;;;;-150.27;100.00;61272.81;5225518;28;20033;-71
2022/04/07 05:29:51;;;;;;;3.30;1.37;;;;;;;-150.27;100.00;61272.81;5215970;28;20024;-71
2022/04/07 05:32:22;;;;;;;7.03;2.17;;;;;;;-150.27;100.00;61272.81;5216340;28;20087;-71
2022/04/07 05:34:53;;;;;;;4.13;1.67;;;;;;;-150.27;100.00;61272.81;5219608;28;21485;-71
2022/04/07 05:37:25;;;;;;;6.07;2.17;;;;;;;-150.27;100.00;61272.81;5214948;28;20038;-72
2022/04/07 05:39:56;;;;;;;3.53;1.60;;;;;;;-150.27;100.00;61272.81;5218938;28;20056;-73
2022/04/07 05:42:27;;;;;;;7.73;2.53;;;;;;;-150.27;100.00;61272.81;5219632;28;20043;-74
2022/04/07 05:44:59;;;;;;;8.07;2.13;;;;;;;-150.27;100.00;61272.81;5230722;28;20021;-74
2022/04/07 05:47:30;;;;;;;6.30;2.40;;;;;;;-150.27;100.00;61272.81;5207603;28;20037;-73
2022/04/07 05:50:02;;;;;;;7.73;2.67;;;;;;;-150.27;100.00;61272.81;5218101;28;20017;-70
2022/04/07 05:52:33;;;;;;;4.10;1.77;;;;;;;-150.27;100.00;61272.81;5222159;28;20029;-70
2022/04/07 05:55:05;;;;;;;5.10;2.20;;;;;;;-150.27;100.00;61272.81;5222823;28;20037;-70
2022/04/07 05:57:36;;;;;;;4.60;2.33;;;;;;;-150.27;100.00;61272.81;5235371;28;20020;-71
2022/04/07 06:00:12;;;;;;;5.30;2.10;;;;;;;-150.27;100.00;61272.81;5220637;28;20697;-71
2022/04/07 06:02:44;;;;;;;7.27;2.37;;;;;;;-150.27;100.00;61272.81;5228164;28;20022;-70
2022/04/07 06:05:16;;;;;;;7.60;2.70;;;;;;;-150.27;100.00;61272.81;5225532;28;20014;-70
2022/04/07 06:07:48;;;;;;;11.20;3.30;;;;;;;-150.27;100.00;61272.81;5226141;28;20053;-70
2022/04/07 06:10:19;;;;;;;7.73;3.03;;;;;;;-150.27;100.00;61272.81;5207778;28;20021;-70
2022/04/07 06:12:50;;;;;;;6.50;2.43;;;;;;;-150.27;100.00;61272.81;5220525;28;20180;-70
2022/04/07 06:15:22;;;;;;;7.17;3.10;;;;;;;-150.27;100.00;61272.81;5222503;28;20032;-70
2022/04/07 06:17:54;;;;;;;7.23;2.73;;;;;;;-150.27;100.00;61272.81;5215331;28;20052;-70
2022/04/07 06:20:25;;;;;;;5.87;2.47;;;;;;;-150.27;100.00;61272.81;5219098;28;20044;-71
2022/04/07 06:22:56;;;;;;;7.30;2.60;;;;;;;-150.27;100.00;61272.81;5226670;28;20025;-70
2022/04/07 06:25:27;;;;;;;5.60;2.30;;;;;;;-150.27;100.00;61272.81;5226149;28;20029;-71
2022/04/07 06:28:02;;;;;;;10.57;2.97;;;;;;;-150.27;100.00;61272.81;5214421;28;20037;-71
2022/04/07 06:30:33;;;;;;;9.30;2.20;;;;;;;-150.27;100.00;61272.81;5206124;28;20026;-70
2022/04/07 06:33:05;;;;;;;7.50;2.33;;;;;;;-150.27;100.00;61272.81;5222798;28;20404;-70
2022/04/07 06:35:36;;;;;;;8.17;2.57;;;;;;;-150.27;100.00;61272.81;5222473;28;21457;-70
2022/04/07 06:38:07;;;;;;;4.47;1.60;;;;;;;-150.27;100.00;61272.81;5223272;28;20545;-70
2022/04/07 06:40:38;;;;;;;7.43;2.37;;;;;;;-150.27;100.00;61272.81;5226695;28;20029;-70
2022/04/07 06:43:10;;;;;;;8.10;1.83;;;;;;;-150.27;100.00;61272.81;5223243;28;20033;-70
2022/04/07 06:45:41;;;;;;;8.03;1.67;;;;;;;-150.27;100.00;61272.81;5221617;28;20029;-70
2022/04/07 06:48:13;;;;;;;7.67;2.77;;;;;;;-150.27;100.00;61272.81;5223580;28;20030;-70
2022/04/07 06:50:44;;;;;;;4.57;1.63;;;;;;;-150.27;100.00;61272.81;5224098;28;20018;-70
2022/04/07 06:53:16;;;;;;;8.67;1.80;;;;;;;-150.27;100.00;61272.81;5222440;28;20331;-70
2022/04/07 06:55:48;;;;;;;5.27;1.37;;;;;;;-150.27;100.00;61272.81;5207175;28;20105;-70
2022/04/07 06:58:20;;;;;;;7.20;1.47;;;;;;;-150.27;100.00;61272.81;5219126;28;20534;-70
2022/04/07 07:00:51;;;;;;;7.37;1.73;;;;;;;-150.27;100.00;61272.81;5211076;28;20033;-69
2022/04/07 07:03:23;;;;;;;6.50;1.63;;;;;;;-150.27;100.00;61272.81;5225898;28;20376;-70
2022/04/07 07:05:58;;;;;;;6.40;1.70;;;;;;;-150.27;100.00;61272.81;5207085;28;20464;-73
2022/04/07 07:08:29;;;;;;;5.77;1.20;;;;;;;-150.27;100.00;61272.81;5214479;28;20431;-71
2022/04/07 07:11:00;;;;;;;7.27;1.80;;;;;;;-150.27;100.00;61272.81;5228782;28;20021;-71
2022/04/07 07:13:33;;;;;;;7.03;1.37;;;;;;;-150.27;100.00;61272.81;5224009;28;20021;-70
2022/04/07 07:16:04;;;;;;;8.13;2.17;;;;;;;-150.27;100.00;61272.81;5226284;28;20611;-69
2022/04/07 07:18:38;;;;;;;5.57;1.70;;;;;;;-150.27;100.00;61272.81;5211608;28;20049;-70
2022/04/07 07:21:10;;;;;;;7.55;2.15;;;;;;;-150.27;100.00;61272.81;5224389;28;20140;-71
2022/04/07 07:23:41;;;;;;;5.87;1.23;;;;;;;-150.27;100.00;61272.81;5229316;28;20065;-72
2022/04/07 07:26:13;;;;;;;4.07;1.53;;;;;;;-150.27;100.00;61272.81;5223318;28;20438;-71
2022/04/07 07:28:44;;;;;;;6.00;1.50;;;;;;;-150.27;100.00;61272.81;5220750;28;20469;-74
2022/04/07 07:31:15;;;;;;;6.53;1.57;;;;;;;-150.27;100.00;61272.81;5224304;28;20041;-69
2022/04/07 07:33:46;;;;;;;3.53;1.53;;;;;;;-150.27;100.00;61272.81;5221112;28;20034;-71
2022/04/07 07:36:18;;;;;;;12.63;2.03;;;;;;;-150.27;100.00;61272.81;5229834;28;20025;-70
2022/04/07 07:38:49;;;;;;;6.20;1.90;;;;;;;-150.27;100.00;61272.81;5233998;28;20053;-70
2022/04/07 07:41:20;;;;;;;5.47;1.50;;;;;;;-150.27;100.00;61272.81;5228801;28;20388;-70
2022/04/07 07:43:52;;;;;;;9.20;1.90;;;;;;;-150.27;100.00;61272.81;5237308;28;20518;-71
2022/04/07 07:46:23;;;;;;;4.70;1.87;;;;;;;-150.27;100.00;61272.81;5227675;28;20108;-70
2022/04/07 07:48:54;;;;;;;7.57;1.57;;;;;;;-150.27;100.00;61272.81;5227879;28;20057;-74
2022/04/07 07:51:25;;;;;;;9.83;1.80;;;;;;;-150.27;100.00;61272.81;5229306;28;20028;-70
2022/04/07 07:53:57;;;;;;;5.03;0.57;;;;;;;-150.27;100.00;61272.81;5235832;28;20030;-73
2022/04/07 07:56:28;;;;;;;5.33;0.87;;;;;;;-150.27;100.00;61272.81;5227544;28;20018;-71
2022/04/07 07:58:59;;;;;;;4.33;0.80;;;;;;;-150.27;100.00;61272.81;5231783;28;20136;-70
2022/04/07 08:01:30;;;;;;;3.40;0.80;;;;;;;-150.27;100.00;61272.81;5223711;28;20037;-70
2022/04/07 08:04:02;;;;;;;6.07;1.00;;;;;;;-150.27;100.00;61272.81;5235868;28;20665;-71
2022/04/07 08:06:33;;;;;;;6.27;1.20;;;;;;;-150.27;100.00;61272.81;5226038;28;20137;-71
2022/04/07 08:09:05;;;;;;;2.70;0.90;;;;;;;-150.27;100.00;61272.81;5236331;28;20678;-72
2022/04/07 08:11:36;;;;;;;4.80;0.90;;;;;;;-150.27;100.00;61272.81;5225462;28;20095;-72
2022/04/07 08:14:08;;;;;;;5.60;0.90;;;;;;;-150.27;100.00;61272.81;5234917;28;20123;-72
2022/04/07 08:16:39;;;;;;;5.67;1.40;;;;;;;-150.27;100.00;61272.81;5224968;28;20044;-72
2022/04/07 08:19:11;;;;;;;3.53;0.93;;;;;;;-150.27;100.00;61272.81;5219306;28;20034;-72
2022/04/07 08:21:42;;;;;;;2.97;0.80;;;;;;;-150.27;100.00;61272.81;5211965;28;20036;-72
2022/04/07 08:24:16;;;;;;;5.40;1.53;;;;;;;-150.27;100.00;61272.81;5214090;28;20026;-72
2022/04/07 08:26:48;;;;;;;3.05;0.80;;;;;;;-150.27;100.00;61272.81;5229296;28;20021;-71
2022/04/07 08:29:19;;;;;;;4.73;1.20;;;;;;;-150.27;100.00;61272.81;5235153;28;20098;-71
2022/04/07 08:31:53;;;;;;;5.27;0.90;;;;;;;-150.27;100.00;61272.81;5232423;28;20108;-72
2022/04/07 08:34:25;;;;;;;4.75;1.33;;;;;;;-150.27;100.00;61272.81;5228692;28;20132;-72
2022/04/07 08:36:56;;;;;;;2.63;1.00;;;;;;;-150.27;100.00;61272.81;5226481;28;20025;-72
2022/04/07 08:39:27;;;;;;;3.53;1.23;;;;;;;-150.27;100.00;61272.81;5236313;28;20017;-72
2022/04/07 08:41:59;;;;;;;3.27;0.90;;;;;;;-150.27;100.00;61272.81;5232893;28;20049;-72
2022/04/07 08:44:33;;;;;;;4.47;1.27;;;;;;;-150.27;100.00;61272.81;5234023;28;20040;-71
2022/04/07 08:47:05;;;;;;;5.20;0.90;;;;;;;-150.27;100.00;61272.81;5209551;28;20055;-71
2022/04/07 08:49:37;;;;;;;4.77;1.13;;;;;;;-150.27;100.00;61272.81;5222790;28;20116;-71
2022/04/07 08:52:09;;;;;;;4.17;1.30;;;;;;;-150.27;100.00;61272.81;5234172;28;20037;-72
2022/04/07 08:54:43;;;;;;;5.13;1.47;;;;;;;-150.27;100.00;61272.81;5234566;28;20033;-71
2022/04/07 08:57:15;;;;;;;3.60;1.00;;;;;;;-150.27;100.00;61272.81;5223414;28;20507;-71
2022/04/07 08:59:46;;;;;;;7.37;2.07;;;;;;;-150.27;100.00;61272.81;5227059;28;20278;-71
2022/04/07 09:02:18;;;;;;;3.23;1.10;;;;;;;-150.27;100.00;61272.81;5211137;28;20053;-70
2022/04/07 09:04:56;;;;;;;4.47;1.40;;;;;;;-150.27;100.00;61272.81;5211795;28;20029;-72
2022/04/07 09:07:32;;;;;;;5.10;1.53;;;;;;;-150.27;100.00;61272.81;5219663;28;20568;-72
2022/04/07 09:10:04;;;;;;;5.57;1.20;;;;;;;-150.27;100.00;61272.81;5184800;28;20033;-71
2022/04/07 09:12:38;;;;;;;5.33;1.47;;;;;;;-150.27;100.00;61272.81;5213268;28;20026;-71
2022/04/07 09:15:13;;;;;;;5.32;1.35;;;;;;;-150.27;100.00;61272.81;5221956;28;20113;-71
2022/04/07 09:17:55;;;;;;;4.50;1.20;;;;;;;-150.27;100.00;61272.81;5232584;28;20025;-71
2022/04/07 09:20:26;;;;;;;3.20;1.20;;;;;;;-150.27;100.00;61272.81;5230038;28;20037;-71
2022/04/07 09:22:59;;;;;;;5.03;1.50;;;;;;;-150.27;100.00;61272.81;5231350;28;20025;-71
2022/04/07 09:25:30;;;;;;;4.13;1.37;;;;;;;-150.27;100.00;61272.81;5217997;28;20041;-71
2022/04/07 09:28:01;;;;;;;3.50;1.50;;;;;;;-150.27;100.00;61272.81;5228463;28;20028;-72
2022/04/07 09:30:37;;;;;;;4.00;1.80;;;;;;;-150.27;100.00;61272.81;5222271;28;20056;-71
2022/04/07 09:33:22;;;;;;;4.13;1.70;;;;;;;-150.27;100.00;61272.81;5236715;28;20021;-71
2022/04/07 09:36:06;;;;;;;3.50;1.58;;;;;;;-150.27;100.00;61272.81;5238679;28;20029;-71
2022/04/07 09:38:38;;;;;;;3.97;2.05;;;;;;;-150.27;100.00;61272.81;5222236;28;20025;-73
2022/04/07 09:41:11;;;;;;;4.73;1.90;;;;;;;-150.27;100.00;61272.81;5237699;28;20048;-71
2022/04/07 09:43:43;;;;;;;3.83;1.63;;;;;;;-150.27;100.00;61272.81;5232798;28;20025;-71
2022/04/07 09:46:18;;;;;;;3.53;1.40;;;;;;;-150.27;100.00;61272.81;5233266;28;20018;-70
2022/04/07 09:49:00;;;;;;;4.75;1.23;;;;;;;-150.27;100.00;61272.81;5238648;28;20033;-70
2022/04/07 09:51:40;;;;;;;4.87;1.57;;;;;;;-150.27;100.00;61272.81;5235475;28;20040;-71
2022/04/07 09:54:12;;;;;;;3.60;1.53;;;;;;;-150.27;100.00;61272.81;5242543;28;20404;-70
2022/04/07 09:56:46;;;;;;;3.60;1.47;;;;;;;-150.27;100.00;61272.81;5240369;28;20029;-70
2022/04/07 09:59:19;;;;;;;4.95;1.50;;;;;;;-150.27;100.00;61272.81;5234807;28;20037;-70
2022/04/07 10:01:51;;;;;;;6.77;2.00;;;;;;;-150.27;100.00;61272.81;5242792;28;20475;-70
2022/04/07 10:04:23;;;;;;;5.37;1.50;;;;;;;-150.27;100.00;61272.81;5250836;28;20027;-70
2022/04/07 10:06:55;;;;;;;9.80;1.40;;;;;;;-150.27;100.00;61272.81;5235730;28;20048;-73
2022/04/07 10:09:27;;;;;;;4.00;1.27;;;;;;;-150.27;100.00;61272.81;5237739;28;20026;-70
2022/04/07 10:12:02;;;;;;;5.17;2.00;;;;;;;-150.27;100.00;61272.81;5246368;28;20596;-70
2022/04/07 10:14:34;;;;;;;6.90;1.80;;;;;;;-150.27;100.00;61272.81;5244832;28;20099;-70
2022/04/07 10:17:08;;;;;;;4.83;2.20;;;;;;;-150.27;100.00;61272.81;5208620;28;20091;-71
2022/04/07 10:19:46;;;;;;;2.10;1.00;;;;;;;-150.27;100.00;61272.81;5213255;28;20034;-70
2022/04/07 10:22:42;;;;;;;13.70;1.57;;;;;;;-150.27;100.00;61272.81;5213035;28;20240;-70
2022/04/07 10:25:15;;;;;;;5.30;1.30;;;;;;;-150.27;100.00;61272.81;5220078;28;20044;-70
2022/04/07 10:27:53;;;;;;;7.77;1.60;;;;;;;-150.27;100.00;61272.81;5232278;28;20027;-70
2022/04/07 10:30:29;;;;;;;8.97;1.40;;;;;;;-150.27;100.00;61272.81;5225043;28;20467;-67
2022/04/07 10:33:00;;;;;;;5.00;1.30;;;;;;;-150.27;100.00;61272.81;5246078;28;20021;-71
2022/04/07 10:35:34;;;;;;;6.47;1.70;;;;;;;-150.27;100.00;61272.81;5243769;28;20029;-71
2022/04/07 10:38:07;;;;;;;5.15;1.35;;;;;;;-150.27;100.00;61272.81;5233923;28;20788;-69
2022/04/07 10:40:48;;;;;;;4.33;1.50;;;;;;;-150.27;100.00;61272.81;5214400;28;20068;-70
2022/04/07 10:43:22;;;;;;;7.70;1.60;;;;;;;-150.27;100.00;61272.81;5213821;28;20041;-70
2022/04/07 10:46:02;;;;;;;8.90;2.47;;;;;;;-150.27;100.00;61272.81;5222924;28;20044;-72
2022/04/07 10:48:37;;;;;;;6.43;1.87;;;;;;;-150.27;100.00;61272.81;5219774;28;20031;-72
2022/04/07 10:51:10;;;;;;;8.30;2.40;;;;;;;-150.27;100.00;61272.81;5224536;28;20483;-72
2022/04/07 10:54:01;;;;;;;9.67;1.80;;;;;;;-150.27;100.00;61272.81;5227540;28;20361;-72
2022/04/07 10:56:38;;;;;;;8.73;2.03;;;;;;;-150.27;100.00;61272.81;5236319;28;20056;-72
2022/04/07 10:59:18;;;;;;;9.07;2.13;;;;;;;-150.27;100.00;61272.81;5236261;28;20017;-72
2022/04/07 11:01:52;;;;;;;9.37;2.70;;;;;;;-150.27;100.00;61272.81;5231597;28;20041;-72
2022/04/07 11:04:23;;;;;;;;;;;;;;;-150.27;100.00;61272.81;5228728;28;20480;-72
2022/04/07 11:07:17;;;;;;;8.13;2.15;;;;;;;-150.27;100.00;61272.81;5228108;28;19920;-73
2022/04/07 11:10:11;;;;;;;7.07;1.67;;;;;;;-150.27;100.00;61272.81;5230123;28;20496;-72
2022/04/07 11:12:59;;;;;;;9.90;2.07;;;;;;;-150.27;100.00;61272.81;5227702;28;21040;-73
2022/04/07 11:15:50;;;;;;;9.77;2.90;;;;;;;-150.27;100.00;61272.81;5222914;28;20529;-74
2022/04/07 11:19:09;;;;;;;9.17;2.20;;;;;;;-150.27;100.00;61272.81;5222516;28;20551;-74
2022/04/07 11:21:48;;;;;;;9.23;2.53;;;;;;;-150.27;100.00;61272.81;5106876;29;20142;-74
2022/04/07 11:24:23;;;;;;;7.17;2.43;;;;;;;-150.27;100.00;61272.81;5119087;29;20597;-73
2022/04/07 11:26:55;;;;;;;8.87;2.60;;;;;;;-150.27;100.00;61272.81;5195336;28;20125;-75
2022/04/07 11:29:35;;;;;;;7.70;2.40;;;;;;;-150.27;100.00;61272.81;5230208;28;20108;-73
2022/04/07 11:32:08;;;;;;;11.20;2.20;;;;;;;-150.27;100.00;61272.81;5225920;28;20033;-72
2022/04/07 11:34:40;;;;;;;8.10;2.30;;;;;;;-150.27;100.00;61272.81;5230801;28;20192;-72